sensor_id;sensor_type;location;lat;lon;timestamp;pressure;altitude;pressure_sealevel;temperature;humidity
34185;BME280;20454;48.100;11.776;2023-03-13T00:03:45;95151.19;;;5.18;100.00
34185;BME280;20454;48.100;11.776;2023-03-13T00:06:12;95141.34;;;5.12;100.00
34185;BME280;20454;48.100;11.776;2023-03-13T00:08:38;95136.41;;;5.09;100.00
34185;BME280;20454;48.100;11.776;2023-03-13T00:11:06;95137.53;;;5.08;100.00
34185;BME280;20454;48.100;11.776;2023-03-13T00:13:32;95140.56;;;5.07;100.00
34185;BME280;20454;48.100;11.776;2023-03-13T00:16:01;95127.91;;;5.06;100.00
34185;BME280;20454;48.100;11.776;2023-03-13T00:18:27;95145.06;;;5.03;100.00
34185;BME280;20454;48.100;11.776;2023-03-13T00:21:05;95111.81;;;4.76;100.00
34185;BME280;20454;48.100;11.776;2023-03-13T00:23:33;95122.91;;;4.89;100.00
34185;BME280;20454;48.100;11.776;2023-03-13T00:26:08;95086.38;;;4.60;100.00
34185;BME280;20454;48.100;11.776;2023-03-13T00:28:36;95101.72;;;4.66;100.00
34185;BME280;20454;48.100;11.776;2023-03-13T00:31:10;95109.94;;;4.71;100.00
34185;BME280;20454;48.100;11.776;2023-03-13T00:33:39;95113.50;;;4.72;100.00
34185;BME280;20454;48.100;11.776;2023-03-13T00:36:12;95106.34;;;4.71;100.00
34185;BME280;20454;48.100;11.776;2023-03-13T00:38:38;95103.38;;;4.67;100.00
34185;BME280;20454;48.100;11.776;2023-03-13T00:41:22;95095.47;;;4.61;100.00
34185;BME280;20454;48.100;11.776;2023-03-13T00:43:48;95094.94;;;4.59;100.00
34185;BME280;20454;48.100;11.776;2023-03-13T00:46:17;95097.41;;;4.60;100.00
34185;BME280;20454;48.100;11.776;2023-03-13T00:48:43;95084.81;;;4.54;100.00
34185;BME280;20454;48.100;11.776;2023-03-13T00:51:10;95073.31;;;4.47;100.00
34185;BME280;20454;48.100;11.776;2023-03-13T00:53:36;95077.94;;;4.52;100.00
34185;BME280;20454;48.100;11.776;2023-03-13T00:56:09;95059.69;;;4.38;100.00
34185;BME280;20454;48.100;11.776;2023-03-13T00:58:38;95077.19;;;4.47;100.00
34185;BME280;20454;48.100;11.776;2023-03-13T01:01:24;95068.94;;;4.47;100.00
34185;BME280;20454;48.100;11.776;2023-03-13T01:03:54;95069.00;;;4.42;100.00
34185;BME280;20454;48.100;11.776;2023-03-13T01:06:25;95066.00;;;4.38;100.00
34185;BME280;20454;48.100;11.776;2023-03-13T01:08:52;95064.59;;;4.41;100.00
34185;BME280;20454;48.100;11.776;2023-03-13T01:11:24;95064.97;;;4.34;100.00
34185;BME280;20454;48.100;11.776;2023-03-13T01:14:04;95063.63;;;4.32;100.00
34185;BME280;20454;48.100;11.776;2023-03-13T01:16:33;95039.28;;;4.20;100.00
34185;BME280;20454;48.100;11.776;2023-03-13T01:19:02;95065.22;;;4.38;100.00
34185;BME280;20454;48.100;11.776;2023-03-13T01:21:29;95056.47;;;4.31;100.00
34185;BME280;20454;48.100;11.776;2023-03-13T01:23:55;95045.53;;;4.26;100.00
34185;BME280;20454;48.100;11.776;2023-03-13T01:26:22;95047.16;;;4.27;100.00
34185;BME280;20454;48.100;11.776;2023-03-13T01:28:49;95058.72;;;4.29;100.00
34185;BME280;20454;48.100;11.776;2023-03-13T01:31:17;95050.50;;;4.24;100.00
34185;BME280;20454;48.100;11.776;2023-03-13T01:33:45;95053.78;;;4.26;100.00
34185;BME280;20454;48.100;11.776;2023-03-13T01:36:11;95047.81;;;4.19;100.00
34185;BME280;20454;48.100;11.776;2023-03-13T01:38:38;95031.94;;;4.11;100.00
34185;BME280;20454;48.100;11.776;2023-03-13T01:41:05;95050.56;;;4.19;100.00
34185;BME280;20454;48.100;11.776;2023-03-13T01:43:34;95042.97;;;4.11;100.00
34185;BME280;20454;48.100;11.776;2023-03-13T01:48:56;95042.13;;;4.10;100.00
34185;BME280;20454;48.100;11.776;2023-03-13T01:51:30;95041.66;;;4.03;100.00
34185;BME280;20454;48.100;11.776;2023-03-13T01:59:33;95041.19;;;3.96;100.00
34185;BME280;20454;48.100;11.776;2023-03-13T02:02:02;95037.94;;;3.94;100.00
34185;BME280;20454;48.100;11.776;2023-03-13T02:04:34;95023.47;;;3.84;100.00
34185;BME280;20454;48.100;11.776;2023-03-13T02:07:07;95036.63;;;3.87;100.00
34185;BME280;20454;48.100;11.776;2023-03-13T02:09:35;95028.44;;;3.82;100.00
34185;BME280;20454;48.100;11.776;2023-03-13T02:12:17;95028.22;;;3.78;100.00
34185;BME280;20454;48.100;11.776;2023-03-13T02:14:46;95026.03;;;3.75;100.00
34185;BME280;20454;48.100;11.776;2023-03-13T02:17:13;95014.78;;;3.72;100.00
34185;BME280;20454;48.100;11.776;2023-03-13T02:19:47;95000.88;;;3.63;100.00
34185;BME280;20454;48.100;11.776;2023-03-13T02:25:41;95005.50;;;3.68;100.00
34185;BME280;20454;48.100;11.776;2023-03-13T02:28:26;94998.38;;;3.67;100.00
34185;BME280;20454;48.100;11.776;2023-03-13T02:30:57;94992.31;;;3.65;100.00
34185;BME280;20454;48.100;11.776;2023-03-13T02:33:30;95005.50;;;3.68;100.00
34185;BME280;20454;48.100;11.776;2023-03-13T02:36:00;94986.28;;;3.63;100.00
34185;BME280;20454;48.100;11.776;2023-03-13T02:38:29;94997.25;;;3.68;100.00
34185;BME280;20454;48.100;11.776;2023-03-13T02:40:56;95017.78;;;3.75;100.00
34185;BME280;20454;48.100;11.776;2023-03-13T02:43:29;95016.66;;;3.76;100.00
34185;BME280;20454;48.100;11.776;2023-03-13T02:46:17;95020.00;;;3.73;100.00
34185;BME280;20454;48.100;11.776;2023-03-13T02:48:53;95015.66;;;3.67;100.00
34185;BME280;20454;48.100;11.776;2023-03-13T02:53:50;95031.59;;;3.70;100.00
34185;BME280;20454;48.100;11.776;2023-03-13T02:56:20;95016.53;;;3.63;100.00
34185;BME280;20454;48.100;11.776;2023-03-13T02:58:46;95027.53;;;3.63;100.00
34185;BME280;20454;48.100;11.776;2023-03-13T05:00:32;94907.09;;;4.44;97.62
34185;BME280;20454;48.100;11.776;2023-03-13T05:02:58;94922.84;;;4.57;96.62
34185;BME280;20454;48.100;11.776;2023-03-13T05:05:23;94914.50;;;4.61;96.67
34185;BME280;20454;48.100;11.776;2023-03-13T05:07:49;94914.41;;;4.66;96.77
34185;BME280;20454;48.100;11.776;2023-03-13T05:10:15;94914.34;;;4.71;95.88
34185;BME280;20454;48.100;11.776;2023-03-13T05:12:41;94911.81;;;4.75;95.67
34185;BME280;20454;48.100;11.776;2023-03-13T05:15:07;94904.97;;;4.72;95.68
34185;BME280;20454;48.100;11.776;2023-03-13T05:17:33;94901.50;;;4.80;95.10
34185;BME280;20454;48.100;11.776;2023-03-13T05:19:59;94918.06;;;4.94;94.12
34185;BME280;20454;48.100;11.776;2023-03-13T05:22:25;94899.41;;;4.91;94.06
34185;BME280;20454;48.100;11.776;2023-03-13T05:24:51;94895.22;;;4.93;93.92
34185;BME280;20454;48.100;11.776;2023-03-13T05:27:16;94906.38;;;5.02;93.39
34185;BME280;20454;48.100;11.776;2023-03-13T05:29:42;94900.88;;;5.02;93.61
34185;BME280;20454;48.100;11.776;2023-03-13T05:32:08;94897.78;;;5.03;93.72
34185;BME280;20454;48.100;11.776;2023-03-13T05:34:34;94896.66;;;5.04;94.05
34185;BME280;20454;48.100;11.776;2023-03-13T05:36:59;94893.81;;;5.09;93.81
34185;BME280;20454;48.100;11.776;2023-03-13T05:39:25;94881.25;;;5.03;94.03
34185;BME280;20454;48.100;11.776;2023-03-13T05:41:51;94876.59;;;5.17;93.38
34185;BME280;20454;48.100;11.776;2023-03-13T05:44:17;94878.75;;;5.20;93.00
34185;BME280;20454;48.100;11.776;2023-03-13T07:01:52;94809.78;;;6.89;79.78
34185;BME280;20454;48.100;11.776;2023-03-13T07:04:17;94825.94;;;6.96;79.74
34185;BME280;20454;48.100;11.776;2023-03-13T07:06:44;94820.06;;;6.97;79.25
34185;BME280;20454;48.100;11.776;2023-03-13T07:09:10;94811.66;;;7.02;78.86
34185;BME280;20454;48.100;11.776;2023-03-13T07:11:36;94805.75;;;6.95;79.75
34185;BME280;20454;48.100;11.776;2023-03-13T07:14:02;94818.16;;;6.98;80.37
34185;BME280;20454;48.100;11.776;2023-03-13T07:16:27;94821.72;;;6.98;80.96
34185;BME280;20454;48.100;11.776;2023-03-13T07:18:53;94809.97;;;6.93;81.48
34185;BME280;20454;48.100;11.776;2023-03-13T07:21:19;94816.50;;;6.97;82.30
34185;BME280;20454;48.100;11.776;2023-03-13T07:23:45;94809.38;;;7.04;80.32
34185;BME280;20454;48.100;11.776;2023-03-13T07:26:14;94811.16;;;7.00;80.63
34185;BME280;20454;48.100;11.776;2023-03-13T07:28:41;94811.34;;;7.04;80.91
34185;BME280;20454;48.100;11.776;2023-03-13T07:31:19;94809.53;;;6.99;81.14
34185;BME280;20454;48.100;11.776;2023-03-13T07:33:45;94810.56;;;7.12;80.99
34185;BME280;20454;48.100;11.776;2023-03-13T07:36:13;94810.94;;;7.19;80.07
34185;BME280;20454;48.100;11.776;2023-03-13T07:38:40;94810.47;;;7.25;80.51
34185;BME280;20454;48.100;11.776;2023-03-13T07:41:10;94813.31;;;7.42;78.31
34185;BME280;20454;48.100;11.776;2023-03-13T07:43:36;94812.84;;;7.49;78.73
34185;BME280;20454;48.100;11.776;2023-03-13T07:46:06;94800.47;;;7.46;79.41
34185;BME280;20454;48.100;11.776;2023-03-13T07:48:37;94806.81;;;7.47;79.65
34185;BME280;20454;48.100;11.776;2023-03-13T07:51:07;94796.59;;;7.47;79.30
34185;BME280;20454;48.100;11.776;2023-03-13T07:53:34;94795.94;;;7.50;79.42
34185;BME280;20454;48.100;11.776;2023-03-13T07:56:10;94798.56;;;7.64;76.43
34185;BME280;20454;48.100;11.776;2023-03-13T07:58:37;94795.19;;;7.67;76.60
34185;BME280;20454;48.100;11.776;2023-03-13T08:08:50;94798.56;;;7.64;81.50
34185;BME280;20454;48.100;11.776;2023-03-13T08:11:22;94806.41;;;7.70;82.32
34185;BME280;20454;48.100;11.776;2023-03-13T08:13:50;94801.53;;;7.76;82.84
34185;BME280;20454;48.100;11.776;2023-03-13T08:16:18;94796.34;;;7.83;82.15
34185;BME280;20454;48.100;11.776;2023-03-13T08:18:46;94791.00;;;7.95;82.09
34185;BME280;20454;48.100;11.776;2023-03-13T08:21:16;94792.16;;;8.11;81.03
34185;BME280;20454;48.100;11.776;2023-03-13T08:23:42;94794.66;;;8.29;78.29
34185;BME280;20454;48.100;11.776;2023-03-13T08:26:17;94779.00;;;8.50;76.09
34185;BME280;20454;48.100;11.776;2023-03-13T08:28:45;94780.31;;;8.78;73.37
34185;BME280;20454;48.100;11.776;2023-03-13T08:31:12;94787.91;;;9.07;68.28
34185;BME280;20454;48.100;11.776;2023-03-13T08:33:40;94777.25;;;9.17;69.88
34185;BME280;20454;48.100;11.776;2023-03-13T08:36:24;94771.00;;;9.37;70.23
34185;BME280;20454;48.100;11.776;2023-03-13T08:38:52;94772.72;;;9.50;68.11
34185;BME280;20454;48.100;11.776;2023-03-13T08:41:22;94779.50;;;9.69;67.55
34185;BME280;20454;48.100;11.776;2023-03-13T08:43:52;94791.31;;;9.87;67.43
34185;BME280;20454;48.100;11.776;2023-03-13T08:46:17;94797.84;;;9.91;64.97
34185;BME280;20454;48.100;11.776;2023-03-13T08:48:43;94797.53;;;9.92;66.05
34185;BME280;20454;48.100;11.776;2023-03-13T08:51:12;94789.56;;;9.82;67.89
34185;BME280;20454;48.100;11.776;2023-03-13T08:53:40;94790.25;;;9.79;69.93
34185;BME280;20454;48.100;11.776;2023-03-13T08:56:10;94790.13;;;9.67;71.67
34185;BME280;20454;48.100;11.776;2023-03-13T08:58:37;94783.47;;;9.60;73.07
34185;BME280;20454;48.100;11.776;2023-03-13T09:01:14;94781.34;;;9.65;74.85
34185;BME280;20454;48.100;11.776;2023-03-13T09:03:41;94789.69;;;9.86;73.58
34185;BME280;20454;48.100;11.776;2023-03-13T09:06:07;94779.72;;;9.93;72.61
34185;BME280;20454;48.100;11.776;2023-03-13T09:08:34;94785.88;;;10.07;73.46
34185;BME280;20454;48.100;11.776;2023-03-13T09:11:04;94777.34;;;10.33;70.56
34185;BME280;20454;48.100;11.776;2023-03-13T09:13:34;94770.97;;;10.53;69.01
34185;BME280;20454;48.100;11.776;2023-03-13T09:16:06;94770.34;;;10.68;69.73
34185;BME280;20454;48.100;11.776;2023-03-13T09:18:33;94767.03;;;11.07;68.82
34185;BME280;20454;48.100;11.776;2023-03-13T09:20:59;94764.97;;;11.16;67.20
34185;BME280;20454;48.100;11.776;2023-03-13T09:23:25;94759.91;;;11.30;67.27
34185;BME280;20454;48.100;11.776;2023-03-13T09:25:56;94750.88;;;11.57;63.87
34185;BME280;20454;48.100;11.776;2023-03-13T09:28:23;94748.38;;;11.88;62.03
34185;BME280;20454;48.100;11.776;2023-03-13T09:30:50;94768.34;;;12.14;60.78
34185;BME280;20454;48.100;11.776;2023-03-13T09:33:17;94754.38;;;12.26;60.81
34185;BME280;20454;48.100;11.776;2023-03-13T09:35:45;94758.78;;;12.39;59.43
34185;BME280;20454;48.100;11.776;2023-03-13T09:38:16;94754.66;;;12.60;59.51
34185;BME280;20454;48.100;11.776;2023-03-13T09:40:48;94746.06;;;12.93;59.96
34185;BME280;20454;48.100;11.776;2023-03-13T09:43:41;94731.47;;;13.11;59.58
34185;BME280;20454;48.100;11.776;2023-03-13T09:46:24;94733.50;;;13.42;55.18
34185;BME280;20454;48.100;11.776;2023-03-13T09:48:59;94720.34;;;13.42;55.17
34185;BME280;20454;48.100;11.776;2023-03-13T09:51:37;94719.78;;;13.68;54.03
34185;BME280;20454;48.100;11.776;2023-03-13T09:54:25;94718.34;;;14.05;53.71
34185;BME280;20454;48.100;11.776;2023-03-13T09:57:04;94712.03;;;14.23;54.18
34185;BME280;20454;48.100;11.776;2023-03-13T09:59:42;94705.84;;;14.33;51.82
34185;BME280;20454;48.100;11.776;2023-03-13T10:02:34;94702.59;;;14.66;51.65
34185;BME280;20454;48.100;11.776;2023-03-13T10:05:24;94705.81;;;15.24;52.13
34185;BME280;20454;48.100;11.776;2023-03-13T10:08:16;94711.22;;;15.78;48.12
34185;BME280;20454;48.100;11.776;2023-03-13T10:11:03;94705.97;;;16.21;44.63
34185;BME280;20454;48.100;11.776;2023-03-13T10:13:50;94699.75;;;16.61;44.92
34185;BME280;20454;48.100;11.776;2023-03-13T10:16:50;94684.53;;;16.91;42.60
34185;BME280;20454;48.100;11.776;2023-03-13T10:19:32;94663.19;;;17.49;43.58
34185;BME280;20454;48.100;11.776;2023-03-13T10:22:02;94672.72;;;17.81;41.82
34185;BME280;20454;48.100;11.776;2023-03-13T10:24:56;94658.22;;;18.26;41.57
34185;BME280;20454;48.100;11.776;2023-03-13T10:27:22;94652.47;;;18.09;40.30
34185;BME280;20454;48.100;11.776;2023-03-13T10:29:48;94652.22;;;18.31;39.58
34185;BME280;20454;48.100;11.776;2023-03-13T10:32:16;94653.22;;;18.56;39.83
34185;BME280;20454;48.100;11.776;2023-03-13T10:34:59;94663.28;;;18.57;39.15
34185;BME280;20454;48.100;11.776;2023-03-13T10:37:40;94645.84;;;18.34;37.46
34185;BME280;20454;48.100;11.776;2023-03-13T10:40:24;94659.00;;;17.76;38.64
34185;BME280;20454;48.100;11.776;2023-03-13T10:42:58;94656.28;;;17.87;39.89
34185;BME280;20454;48.100;11.776;2023-03-13T10:45:25;94652.50;;;18.16;37.86
34185;BME280;20454;48.100;11.776;2023-03-13T10:47:59;94637.56;;;18.08;36.48
34185;BME280;20454;48.100;11.776;2023-03-13T10:50:30;94636.72;;;18.01;37.55
34185;BME280;20454;48.100;11.776;2023-03-13T10:52:57;94634.75;;;18.08;38.02
34185;BME280;20454;48.100;11.776;2023-03-13T10:55:24;94621.34;;;17.91;38.49
34185;BME280;20454;48.100;11.776;2023-03-13T10:58:03;94633.13;;;17.60;38.14
34185;BME280;20454;48.100;11.776;2023-03-13T11:00:40;94627.84;;;17.55;38.10
34185;BME280;20454;48.100;11.776;2023-03-13T11:03:22;94614.25;;;17.61;39.49
34185;BME280;20454;48.100;11.776;2023-03-13T11:06:02;94610.31;;;17.69;38.37
34185;BME280;20454;48.100;11.776;2023-03-13T11:08:34;94604.91;;;17.97;38.83
34185;BME280;20454;48.100;11.776;2023-03-13T11:11:04;94604.34;;;17.77;38.58
34185;BME280;20454;48.100;11.776;2023-03-13T11:13:36;94604.31;;;18.28;38.13
34185;BME280;20454;48.100;11.776;2023-03-13T11:16:21;94591.31;;;18.77;37.50
34185;BME280;20454;48.100;11.776;2023-03-13T11:31:18;94591.59;;;20.00;35.15
34185;BME280;20454;48.100;11.776;2023-03-13T11:39:37;94578.59;;;20.68;34.61
34185;BME280;20454;48.100;11.776;2023-03-13T11:42:47;94574.09;;;21.64;33.21
34185;BME280;20454;48.100;11.776;2023-03-13T11:45:57;94566.47;;;21.54;32.97
34185;BME280;20454;48.100;11.776;2023-03-13T11:56:55;94539.91;;;21.95;32.73
34185;BME280;20454;48.100;11.776;2023-03-13T12:02:22;94537.78;;;21.52;33.48
34185;BME280;20454;48.100;11.776;2023-03-13T12:05:00;94536.53;;;21.56;33.97
34185;BME280;20454;48.100;11.776;2023-03-13T12:08:02;94516.06;;;21.35;33.70
34185;BME280;20454;48.100;11.776;2023-03-13T12:10:40;94507.03;;;21.54;33.91
34185;BME280;20454;48.100;11.776;2023-03-13T12:13:29;94495.66;;;22.05;33.42
34185;BME280;20454;48.100;11.776;2023-03-13T12:16:00;94487.91;;;22.86;33.52
34185;BME280;20454;48.100;11.776;2023-03-13T12:18:43;94489.06;;;23.49;32.30
34185;BME280;20454;48.100;11.776;2023-03-13T12:24:20;94488.38;;;23.41;32.08
34185;BME280;20454;48.100;11.776;2023-03-13T12:27:04;94482.09;;;23.53;32.31
34185;BME280;20454;48.100;11.776;2023-03-13T12:30:02;94473.34;;;23.14;32.95
34185;BME280;20454;48.100;11.776;2023-03-13T12:35:28;94465.16;;;23.20;34.64
34185;BME280;20454;48.100;11.776;2023-03-13T12:43:32;94458.47;;;22.40;37.37
34185;BME280;20454;48.100;11.776;2023-03-13T12:59:58;94428.78;;;22.51;37.78
34185;BME280;20454;48.100;11.776;2023-03-13T13:02:30;94409.69;;;22.55;37.24
34185;BME280;20454;48.100;11.776;2023-03-13T13:05:00;94427.88;;;21.87;37.53
34185;BME280;20454;48.100;11.776;2023-03-13T13:07:33;94415.28;;;21.48;38.33
34185;BME280;20454;48.100;11.776;2023-03-13T13:12:42;94410.31;;;21.11;39.26
34185;BME280;20454;48.100;11.776;2023-03-13T13:15:47;94412.88;;;20.95;40.13
34185;BME280;20454;48.100;11.776;2023-03-13T13:18:29;94406.06;;;20.79;39.59
34185;BME280;20454;48.100;11.776;2023-03-13T13:21:23;94411.31;;;20.80;39.98
34185;BME280;20454;48.100;11.776;2023-03-13T13:23:51;94402.41;;;20.89;40.06
34185;BME280;20454;48.100;11.776;2023-03-13T13:29:01;94397.09;;;20.98;39.94
34185;BME280;20454;48.100;11.776;2023-03-13T13:37:00;94396.16;;;21.11;39.56
34185;BME280;20454;48.100;11.776;2023-03-13T13:39:48;94389.59;;;21.25;39.75
34185;BME280;20454;48.100;11.776;2023-03-13T13:47:49;94374.53;;;21.82;38.55
34185;BME280;20454;48.100;11.776;2023-03-13T13:50:27;94367.59;;;21.87;38.76
34185;BME280;20454;48.100;11.776;2023-03-13T13:53:28;94375.53;;;22.02;37.46
34185;BME280;20454;48.100;11.776;2023-03-13T13:55:54;94373.34;;;22.13;37.64
34185;BME280;20454;48.100;11.776;2023-03-13T13:58:27;94360.19;;;21.56;37.79
34185;BME280;20454;48.100;11.776;2023-03-13T14:01:00;94351.84;;;21.86;38.54
34185;BME280;20454;48.100;11.776;2023-03-13T14:03:32;94336.84;;;21.85;37.68
34185;BME280;20454;48.100;11.776;2023-03-13T14:06:46;94337.25;;;21.84;37.91
34185;BME280;20454;48.100;11.776;2023-03-13T14:09:21;94330.69;;;21.57;38.42
34185;BME280;20454;48.100;11.776;2023-03-13T14:11:48;94329.78;;;21.67;38.06
34185;BME280;20454;48.100;11.776;2023-03-13T14:14:17;94320.41;;;21.73;37.98
34185;BME280;20454;48.100;11.776;2023-03-13T14:16:55;94326.34;;;21.86;38.10
34185;BME280;20454;48.100;11.776;2023-03-13T14:19:27;94322.03;;;21.74;38.16
34185;BME280;20454;48.100;11.776;2023-03-13T14:22:08;94311.91;;;21.73;38.60
34185;BME280;20454;48.100;11.776;2023-03-13T14:24:35;94311.06;;;21.76;38.68
34185;BME280;20454;48.100;11.776;2023-03-13T14:27:15;94307.94;;;21.67;38.72
34185;BME280;20454;48.100;11.776;2023-03-13T14:29:44;94307.97;;;21.64;39.09
34185;BME280;20454;48.100;11.776;2023-03-13T14:32:25;94293.19;;;21.46;39.48
34185;BME280;20454;48.100;11.776;2023-03-13T14:34:50;94291.72;;;21.31;40.11
34185;BME280;20454;48.100;11.776;2023-03-13T14:37:40;94282.34;;;20.97;39.33
34185;BME280;20454;48.100;11.776;2023-03-13T14:40:20;94268.03;;;20.70;40.05
34185;BME280;20454;48.100;11.776;2023-03-13T14:42:57;94271.47;;;20.41;41.11
34185;BME280;20454;48.100;11.776;2023-03-13T14:45:32;94258.72;;;20.19;41.26
34185;BME280;20454;48.100;11.776;2023-03-13T14:48:04;94254.41;;;19.87;41.81
34185;BME280;20454;48.100;11.776;2023-03-13T14:50:30;94246.88;;;19.63;42.63
34185;BME280;20454;48.100;11.776;2023-03-13T14:53:09;94251.31;;;19.60;43.12
34185;BME280;20454;48.100;11.776;2023-03-13T14:55:36;94244.13;;;19.49;42.35
34185;BME280;20454;48.100;11.776;2023-03-13T14:58:28;94247.78;;;19.35;43.73
34185;BME280;20454;48.100;11.776;2023-03-13T15:00:55;94232.53;;;19.29;43.99
34185;BME280;20454;48.100;11.776;2023-03-13T15:03:30;94232.94;;;19.21;44.55
34185;BME280;20454;48.100;11.776;2023-03-13T15:06:26;94230.13;;;19.14;45.62
34185;BME280;20454;48.100;11.776;2023-03-13T15:09:17;94221.28;;;19.08;43.37
34185;BME280;20454;48.100;11.776;2023-03-13T15:14:52;94207.19;;;19.01;44.21
34185;BME280;20454;48.100;11.776;2023-03-13T15:17:22;94207.22;;;18.94;45.12
34185;BME280;20454;48.100;11.776;2023-03-13T15:19:57;94206.81;;;18.89;45.87
34185;BME280;20454;48.100;11.776;2023-03-13T15:22:30;94208.84;;;18.81;45.16
34185;BME280;20454;48.100;11.776;2023-03-13T15:24:57;94192.34;;;18.80;45.68
34185;BME280;20454;48.100;11.776;2023-03-13T15:27:24;94189.94;;;18.71;46.24
34185;BME280;20454;48.100;11.776;2023-03-13T15:29:51;94181.50;;;18.64;46.62
34185;BME280;20454;48.100;11.776;2023-03-13T17:02:56;93985.25;;;14.76;56.13
34185;BME280;20454;48.100;11.776;2023-03-13T17:05:24;93979.16;;;14.67;56.08
34185;BME280;20454;48.100;11.776;2023-03-13T17:07:50;93987.44;;;14.56;56.63
34185;BME280;20454;48.100;11.776;2023-03-13T17:10:27;93988.13;;;14.46;56.85
34185;BME280;20454;48.100;11.776;2023-03-13T17:12:53;93976.78;;;14.32;56.55
34185;BME280;20454;48.100;11.776;2023-03-13T17:15:19;93985.00;;;14.18;57.04
34185;BME280;20454;48.100;11.776;2023-03-13T17:17:48;93971.25;;;14.06;56.81
34185;BME280;20454;48.100;11.776;2023-03-13T17:20:22;93965.16;;;13.97;56.15
34185;BME280;20454;48.100;11.776;2023-03-13T17:22:49;93962.25;;;13.90;56.87
34185;BME280;20454;48.100;11.776;2023-03-13T17:25:15;93959.75;;;13.82;56.66
34185;BME280;20454;48.100;11.776;2023-03-13T17:27:42;93942.09;;;13.74;56.75
34185;BME280;20454;48.100;11.776;2023-03-13T17:30:23;93935.56;;;13.63;56.55
34185;BME280;20454;48.100;11.776;2023-03-13T17:32:50;93944.31;;;13.62;57.13
34185;BME280;20454;48.100;11.776;2023-03-13T17:35:18;93939.41;;;13.52;56.86
34185;BME280;20454;48.100;11.776;2023-03-13T17:37:44;93918.09;;;13.40;57.48
34185;BME280;20454;48.100;11.776;2023-03-13T17:42:46;93915.78;;;13.20;57.99
34185;BME280;20454;48.100;11.776;2023-03-13T17:45:13;93922.16;;;13.17;58.24
34185;BME280;20454;48.100;11.776;2023-03-13T17:47:39;93913.19;;;13.04;58.55
34185;BME280;20454;48.100;11.776;2023-03-13T17:50:24;93922.03;;;13.10;58.67
34185;BME280;20454;48.100;11.776;2023-03-13T17:52:54;93913.50;;;12.99;58.67
34185;BME280;20454;48.100;11.776;2023-03-13T21:25:21;93691.75;;;9.05;76.31
34185;BME280;20454;48.100;11.776;2023-03-13T21:27:47;93701.59;;;9.02;76.69
34185;BME280;20454;48.100;11.776;2023-03-13T21:30:17;93684.94;;;9.02;76.91
34185;BME280;20454;48.100;11.776;2023-03-13T21:32:44;93699.00;;;9.09;77.46
34185;BME280;20454;48.100;11.776;2023-03-13T21:35:11;93692.63;;;9.09;77.41
34185;BME280;20454;48.100;11.776;2023-03-13T21:37:37;93678.34;;;9.07;77.29
34185;BME280;20454;48.100;11.776;2023-03-13T21:40:05;93679.34;;;9.14;77.00
34185;BME280;20454;48.100;11.776;2023-03-13T21:42:31;93673.78;;;9.14;77.28
34185;BME280;20454;48.100;11.776;2023-03-13T21:44:58;93675.38;;;9.15;77.09
34185;BME280;20454;48.100;11.776;2023-03-13T21:47:24;93667.16;;;9.19;77.61
34185;BME280;20454;48.100;11.776;2023-03-13T21:49:54;93679.84;;;9.20;77.58
34185;BME280;20454;48.100;11.776;2023-03-13T21:52:21;93691.78;;;9.20;77.14
34185;BME280;20454;48.100;11.776;2023-03-13T21:54:48;93694.53;;;9.20;77.52
34185;BME280;20454;48.100;11.776;2023-03-13T21:57:14;93699.19;;;9.16;77.20
34185;BME280;20454;48.100;11.776;2023-03-13T21:59:41;93705.09;;;9.15;77.03
34185;BME280;20454;48.100;11.776;2023-03-13T22:02:11;93717.53;;;9.21;76.70
34185;BME280;20454;48.100;11.776;2023-03-13T22:04:38;93710.47;;;9.23;75.81
34185;BME280;20454;48.100;11.776;2023-03-13T22:07:04;93703.56;;;9.17;75.84
34185;BME280;20454;48.100;11.776;2023-03-13T22:09:30;93699.81;;;9.25;74.99
34185;BME280;20454;48.100;11.776;2023-03-13T22:11:57;93708.94;;;9.26;74.77
34185;BME280;20454;48.100;11.776;2023-03-13T22:14:23;93713.31;;;9.27;74.55
34185;BME280;20454;48.100;11.776;2023-03-13T22:16:50;93720.03;;;9.26;73.58
34185;BME280;20454;48.100;11.776;2023-03-13T22:19:16;93745.91;;;9.45;68.90
34185;BME280;20454;48.100;11.776;2023-03-13T22:21:43;93748.50;;;9.53;67.96
34185;BME280;20454;48.100;11.776;2023-03-13T22:24:09;93759.16;;;9.67;67.58
34185;BME280;20454;48.100;11.776;2023-03-13T22:26:35;93779.56;;;9.90;65.39
34185;BME280;20454;48.100;11.776;2023-03-13T22:29:02;93932.97;;;9.99;65.80
34185;BME280;20454;48.100;11.776;2023-03-13T22:31:27;93929.84;;;10.16;64.85
34185;BME280;20454;48.100;11.776;2023-03-13T22:33:53;93886.06;;;10.75;56.80
34185;BME280;20454;48.100;11.776;2023-03-13T22:36:19;93907.50;;;11.47;56.03
34185;BME280;20454;48.100;11.776;2023-03-13T22:38:45;93935.03;;;11.67;57.00
34185;BME280;20454;48.100;11.776;2023-03-13T22:41:12;93942.91;;;11.84;58.53
34185;BME280;20454;48.100;11.776;2023-03-13T22:43:38;93940.38;;;11.76;59.16
34185;BME280;20454;48.100;11.776;2023-03-13T22:46:04;93946.16;;;11.86;60.46
34185;BME280;20454;48.100;11.776;2023-03-13T22:48:32;93935.59;;;11.76;63.49
34185;BME280;20454;48.100;11.776;2023-03-13T22:51:10;93949.97;;;11.78;64.67
34185;BME280;20454;48.100;11.776;2023-03-13T22:53:39;93954.66;;;11.74;67.28
34185;BME280;20454;48.100;11.776;2023-03-13T22:56:06;93953.69;;;11.67;69.43
34185;BME280;20454;48.100;11.776;2023-03-13T22:58:35;93936.91;;;11.63;71.59
34185;BME280;20454;48.100;11.776;2023-03-13T23:01:05;93935.75;;;11.64;72.50
34185;BME280;20454;48.100;11.776;2023-03-13T23:03:31;93946.44;;;11.62;73.24
34185;BME280;20454;48.100;11.776;2023-03-13T23:05:57;93936.16;;;11.47;74.43
34185;BME280;20454;48.100;11.776;2023-03-13T23:08:22;93928.41;;;11.37;74.85
34185;BME280;20454;48.100;11.776;2023-03-13T23:10:48;93943.47;;;11.36;75.25
34185;BME280;20454;48.100;11.776;2023-03-13T23:13:14;93947.28;;;11.28;76.50